Time;durP1;ratioP1;P1;durP2;ratioP2;P2;SDS_P1;SDS_P2;PMS_P1;PMS_P2;Temp;Humidity;BMP_temperature;BMP_pressure;BME280_temperature;BME280_humidity;BME280_pressure;Samples;Min_cycle;Max_cycle;Signal;HPM_P1;HPM_P2
2022/01/29 00:00:55;;;;;;;;;24.00;16.75;;;;;9.48;67.29;103263.59;5013168;28;46511;-57
2022/01/29 00:03:25;;;;;;;;;16.00;14.50;;;;;9.49;67.01;103258.28;5013862;28;45480;-58
2022/01/29 00:05:52;;;;;;;;;19.25;16.50;;;;;9.50;67.03;103253.91;5010651;28;45575;-58
2022/01/29 00:08:19;;;;;;;;;18.75;17.25;;;;;9.52;66.93;103257.38;5012138;28;45793;-58
2022/01/29 00:10:47;;;;;;;;;17.75;15.75;;;;;9.53;67.12;103253.84;5011097;28;45441;-58
2022/01/29 00:13:13;;;;;;;;;17.25;16.25;;;;;9.51;67.34;103251.25;5015244;28;45377;-58
2022/01/29 00:15:39;;;;;;;;;12.75;10.75;;;;;9.50;67.20;103252.13;5012981;28;45383;-58
2022/01/29 00:18:06;;;;;;;;;20.00;15.50;;;;;9.49;67.13;103239.88;5012933;28;45659;-58
2022/01/29 00:20:33;;;;;;;;;23.00;17.75;;;;;9.47;66.99;103232.88;5010733;28;45527;-58
2022/01/29 00:22:59;;;;;;;;;23.00;18.00;;;;;9.47;67.40;103231.09;5010438;28;45525;-58
2022/01/29 00:25:25;;;;;;;;;20.50;16.50;;;;;9.48;67.03;103224.13;5011656;28;45316;-58
2022/01/29 00:27:53;;;;;;;;;19.00;14.00;;;;;9.46;66.86;103217.97;5008466;28;45596;-58
2022/01/29 00:30:19;;;;;;;;;21.75;17.25;;;;;9.47;66.99;103222.34;5009171;28;46194;-58
2022/01/29 00:32:45;;;;;;;;;20.75;16.00;;;;;9.46;66.87;103216.22;5008830;28;45519;-58
2022/01/29 00:35:11;;;;;;;;;11.50;11.50;;;;;9.44;66.99;103212.75;5008811;28;45708;-58
2022/01/29 00:37:37;;;;;;;;;22.75;16.75;;;;;9.43;67.03;103211.03;5009558;28;45515;-58
2022/01/29 00:40:04;;;;;;;;;16.50;16.25;;;;;9.43;67.04;103215.41;5009583;28;45677;-58
2022/01/29 00:42:30;;;;;;;;;17.50;16.25;;;;;9.39;67.41;103216.34;5009238;28;45468;-58
2022/01/29 00:44:56;;;;;;;;;15.75;13.75;;;;;9.40;67.06;103208.44;5008679;28;45804;-58
2022/01/29 00:47:22;;;;;;;;;14.00;13.25;;;;;9.41;67.06;103206.69;5010938;28;45749;-58
2022/01/29 00:49:48;;;;;;;;;21.25;19.75;;;;;9.40;67.12;103204.91;5008744;28;46040;-58
2022/01/29 00:52:13;;;;;;;;;16.25;14.75;;;;;9.40;67.13;103202.28;5005528;28;45494;-58
2022/01/29 00:54:39;;;;;;;;;19.50;14.00;;;;;9.39;67.14;103196.16;5012682;28;45489;-58
2022/01/29 00:57:05;;;;;;;;;14.00;12.25;;;;;9.38;67.46;103196.19;5020384;28;45447;-58
2022/01/29 00:59:33;;;;;;;;;16.50;15.75;;;;;9.36;67.46;103193.59;5009900;28;46109;-58
2022/01/29 01:02:00;;;;;;;;;15.25;12.75;;;;;9.37;67.60;103189.19;5011764;28;45325;-58
2022/01/29 01:04:26;;;;;;;;;21.00;14.00;;;;;9.36;67.80;103185.69;5012991;28;45715;-58
2022/01/29 01:06:52;;;;;;;;;20.50;13.00;;;;;9.36;67.77;103184.81;5003177;28;45528;-58
2022/01/29 01:09:18;;;;;;;;;17.50;13.25;;;;;9.36;67.52;103180.44;5020984;28;45519;-58
2022/01/29 01:11:43;;;;;;;;;17.75;17.00;;;;;9.36;67.86;103177.81;5016551;28;45501;-58
2022/01/29 01:14:09;;;;;;;;;18.25;14.00;;;;;9.31;68.52;103174.34;5002173;28;45364;-58
2022/01/29 01:16:35;;;;;;;;;18.25;15.50;;;;;9.30;68.74;103183.16;5017243;28;45387;-58
2022/01/29 01:19:01;;;;;;;;;16.25;13.00;;;;;9.28;68.88;103179.69;5019546;28;45424;-58
2022/01/29 01:21:27;;;;;;;;;13.25;12.00;;;;;9.26;69.21;103183.22;5014865;28;45699;-58
2022/01/29 01:23:53;;;;;;;;;14.50;12.25;;;;;9.26;68.71;103176.22;5000972;28;45680;-58
2022/01/29 01:26:19;;;;;;;;;17.75;15.00;;;;;9.25;68.85;103174.47;5013552;28;45355;-58
2022/01/29 01:28:45;;;;;;;;;17.00;12.50;;;;;9.21;69.56;103168.38;5021035;28;45393;-58
2022/01/29 01:31:11;;;;;;;;;14.25;13.50;;;;;9.19;69.61;103174.56;5018050;28;45617;-58
2022/01/29 01:33:36;;;;;;;;;21.25;12.75;;;;;9.15;70.27;103173.72;5013109;28;45520;-58
2022/01/29 01:36:05;;;;;;;;;19.25;16.75;;;;;9.13;70.19;103178.13;5000786;28;45360;-58
2022/01/29 01:38:46;;;;;;;;;16.50;13.00;;;;;9.11;70.65;103189.56;4999587;28;46309;-58
2022/01/29 01:41:15;;;;;;;;;20.75;14.00;;;;;9.09;71.08;103184.34;5014307;28;45674;-58
2022/01/29 01:43:41;;;;;;;;;17.50;13.75;;;;;9.08;71.27;103181.72;5009501;28;45401;-58
2022/01/29 01:46:06;;;;;;;;;16.00;14.50;;;;;9.06;71.30;103176.47;5014728;28;45578;-58
2022/01/29 01:48:32;;;;;;;;;15.00;12.50;;;;;9.05;71.53;103166.84;5020806;28;45309;-59
2022/01/29 01:50:58;;;;;;;;;19.50;16.00;;;;;9.01;71.95;103159.91;5019348;28;45744;-58
2022/01/29 01:53:24;;;;;;;;;18.00;16.00;;;;;9.01;71.92;103169.56;5000329;28;45323;-59
2022/01/29 01:55:50;;;;;;;;;20.50;14.25;;;;;8.99;71.91;103159.03;5000796;28;45380;-59
2022/01/29 01:58:16;;;;;;;;;15.50;13.75;;;;;8.97;72.20;103168.72;5000946;28;46269;-59
2022/01/29 02:00:41;;;;;;;;;19.25;17.00;;;;;9.00;72.07;103166.03;5000691;28;45538;-58
2022/01/29 02:03:09;;;;;;;;;23.25;17.50;;;;;9.02;72.46;103171.31;5017491;28;45493;-58
2022/01/29 02:05:35;;;;;;;;;20.25;14.00;;;;;9.03;72.19;103160.75;5005010;28;45597;-59
2022/01/29 02:08:02;;;;;;;;;20.00;17.25;;;;;9.06;72.31;103150.19;5012130;28;45484;-59
2022/01/29 02:10:28;;;;;;;;;20.50;14.75;;;;;9.08;72.04;103150.16;5009912;28;45384;-59
2022/01/29 02:12:58;;;;;;;;;14.25;14.25;;;;;9.06;72.07;103154.56;5001071;28;45254;-58
2022/01/29 02:15:24;;;;;;;;;17.50;14.25;;;;;9.05;72.30;103142.31;5000357;28;45682;-58
2022/01/29 02:17:51;;;;;;;;;24.25;15.75;;;;;9.05;72.25;103140.56;5012281;28;45466;-58
2022/01/29 02:20:20;;;;;;;;;18.00;15.50;;;;;9.03;72.94;103139.72;5012141;28;45326;-58
2022/01/29 02:22:46;;;;;;;;;17.75;16.25;;;;;9.05;72.73;103139.69;5000861;28;45234;-58
2022/01/29 02:25:43;;;;;;;;;16.00;15.50;;;;;9.01;72.42;103128.38;5000380;28;45656;-58
2022/01/29 02:28:10;;;;;;;;;20.25;17.00;;;;;9.00;72.71;103131.88;5000608;28;45376;-59
2022/01/29 02:30:39;;;;;;;;;20.75;15.25;;;;;9.01;73.00;103127.50;5000297;28;45461;-59
2022/01/29 02:33:10;;;;;;;;;18.50;14.50;;;;;9.02;72.65;103121.34;4999247;28;45397;-59
2022/01/29 02:35:40;;;;;;;;;18.25;15.50;;;;;9.04;72.93;103117.81;5000470;28;45404;-59
2022/01/29 02:38:06;;;;;;;;;21.00;16.75;;;;;9.05;72.49;103113.41;5000457;28;45401;-58
2022/01/29 02:40:36;;;;;;;;;17.50;16.50;;;;;9.08;72.79;103098.44;5003809;28;45447;-59
2022/01/29 02:43:13;;;;;;;;;15.25;15.25;;;;;9.10;72.69;103096.69;5000743;28;45241;-59
2022/01/29 02:45:40;;;;;;;;;17.25;12.50;;;;;9.12;72.80;103097.50;4999972;28;45422;-59
2022/01/29 02:48:06;;;;;;;;;18.25;18.00;;;;;9.12;72.91;103089.63;5000422;28;46229;-59
2022/01/29 02:50:31;;;;;;;;;14.25;13.00;;;;;9.14;72.45;103090.47;5000403;28;45407;-58
2022/01/29 02:52:57;;;;;;;;;12.75;10.50;;;;;9.15;72.38;103080.81;5000002;28;45375;-59
2022/01/29 02:55:24;;;;;;;;;16.50;13.00;;;;;9.18;72.42;103086.03;5000360;28;45396;-59
2022/01/29 02:57:49;;;;;;;;;14.50;12.25;;;;;9.19;72.73;103069.38;5000268;28;46136;-59
2022/01/29 03:00:15;;;;;;;;;16.50;13.00;;;;;9.18;72.77;103073.75;5000084;28;45163;-58
2022/01/29 03:02:41;;;;;;;;;11.25;11.00;;;;;9.18;72.52;103068.50;5000459;28;45574;-59
2022/01/29 03:05:06;;;;;;;;;11.75;7.75;;;;;9.18;72.61;103062.38;5000221;28;45269;-58
2022/01/29 03:07:32;;;;;;;;;12.50;6.75;;;;;9.17;72.95;103069.41;4998574;28;46376;-58
2022/01/29 03:10:00;;;;;;;;;15.25;11.00;;;;;9.16;73.24;103062.41;5014120;28;45328;-59
2022/01/29 03:12:26;;;;;;;;;13.00;9.00;;;;;9.15;73.23;103057.16;5013866;28;45415;-58
2022/01/29 03:14:51;;;;;;;;;17.00;13.50;;;;;9.19;72.99;103058.84;4999816;28;45296;-59
2022/01/29 03:17:17;;;;;;;;;12.00;11.50;;;;;9.20;73.14;103052.69;4999463;28;45614;-59
2022/01/29 03:19:42;;;;;;;;;15.00;10.25;;;;;9.22;73.13;103056.16;5010620;28;45428;-58
2022/01/29 03:22:08;;;;;;;;;13.75;11.75;;;;;9.24;72.89;103057.00;5000407;28;45392;-59
2022/01/29 03:24:33;;;;;;;;;13.00;10.25;;;;;9.25;72.77;103055.25;5000278;28;45423;-59
2022/01/29 03:26:59;;;;;;;;;17.75;13.75;;;;;9.25;73.22;103050.00;4999878;28;45365;-59
2022/01/29 03:29:24;;;;;;;;;12.75;9.50;;;;;9.22;72.75;103050.91;4999634;28;45408;-58
2022/01/29 03:31:49;;;;;;;;;12.00;11.00;;;;;9.20;72.99;103050.94;5001667;28;45557;-59
2022/01/29 03:34:15;;;;;;;;;20.00;11.75;;;;;9.21;73.35;103057.06;5003424;28;45443;-58
2022/01/29 03:36:40;;;;;;;;;12.75;11.00;;;;;9.21;73.58;103051.78;5003204;28;45538;-58
2022/01/29 03:39:06;;;;;;;;;13.00;12.50;;;;;9.25;73.33;103058.75;5020610;28;45352;-58
2022/01/29 03:41:31;;;;;;;;;12.00;9.75;;;;;9.26;72.95;103057.84;5003233;28;45428;-59
2022/01/29 03:44:02;;;;;;;;;12.25;9.50;;;;;9.28;73.34;103055.19;5003435;28;45210;-59
2022/01/29 03:46:28;;;;;;;;;12.50;11.50;;;;;9.27;73.00;103050.84;5002667;28;45403;-59
2022/01/29 03:48:53;;;;;;;;;11.25;8.75;;;;;9.26;73.52;103049.97;5003281;28;45424;-59
2022/01/29 03:51:19;;;;;;;;;17.25;11.25;;;;;9.27;73.65;103049.06;5003179;28;45471;-59
2022/01/29 03:53:46;;;;;;;;;10.75;7.75;;;;;9.29;73.36;103039.38;5002469;28;45643;-59
2022/01/29 03:56:11;;;;;;;;;11.75;11.25;;;;;9.31;73.48;103042.84;5003072;28;45587;-59
2022/01/29 03:58:37;;;;;;;;;9.25;9.25;;;;;9.34;73.12;103041.94;5002963;28;45265;-59
2022/01/29 04:01:02;;;;;;;;;12.75;9.25;;;;;9.38;73.12;103044.47;5002818;28;45402;-58
2022/01/29 04:03:28;;;;;;;;;16.50;11.75;;;;;9.43;73.27;103044.41;5002907;28;45523;-59
2022/01/29 04:05:53;;;;;;;;;17.50;12.00;;;;;9.41;73.16;103051.47;5002719;28;45226;-58
2022/01/29 04:08:19;;;;;;;;;13.75;9.50;;;;;9.38;73.48;103043.63;5003557;28;45357;-58
2022/01/29 04:10:46;;;;;;;;;13.25;11.25;;;;;9.35;73.52;103044.56;5022853;28;45383;-59
2022/01/29 04:13:13;;;;;;;;;13.50;11.50;;;;;9.33;73.78;103045.47;5022687;28;45289;-58
2022/01/29 04:15:39;;;;;;;;;12.25;11.00;;;;;9.30;74.35;103038.50;5007626;28;45497;-58
2022/01/29 04:18:05;;;;;;;;;18.00;13.25;;;;;9.33;73.85;103041.09;5002512;28;45325;-58
2022/01/29 04:20:31;;;;;;;;;15.25;12.75;;;;;9.32;74.07;103043.72;5013434;28;45514;-58
2022/01/29 04:22:56;;;;;;;;;11.50;11.25;;;;;9.34;74.20;103040.19;5002762;28;45466;-58
2022/01/29 04:25:23;;;;;;;;;13.00;13.00;;;;;9.32;73.84;103041.97;5002128;28;45815;-59
2022/01/29 04:27:49;;;;;;;;;16.50;12.50;;;;;9.34;74.27;103041.94;5002242;28;45364;-59
2022/01/29 04:30:27;;;;;;;;;13.75;11.00;;;;;9.33;74.09;103053.38;5002432;28;45515;-59
2022/01/29 04:35:19;;;;;;;;;12.25;10.75;;;;;9.31;73.99;103053.38;5000724;28;46225;-59
2022/01/29 04:37:46;;;;;;;;;16.75;12.00;;;;;9.33;73.75;103042.84;5001619;28;45531;-59
2022/01/29 04:40:12;;;;;;;;;12.00;11.50;;;;;9.35;73.96;103038.41;5005221;28;45326;-59
2022/01/29 04:42:39;;;;;;;;;11.75;10.75;;;;;9.40;74.37;103044.44;5002007;28;45337;-58
2022/01/29 04:45:05;;;;;;;;;17.00;12.75;;;;;9.41;74.29;103039.19;5002042;28;45596;-59
2022/01/29 04:47:30;;;;;;;;;16.00;14.75;;;;;9.43;73.83;103040.03;5001746;28;45371;-58
2022/01/29 04:49:56;;;;;;;;;16.75;11.50;;;;;9.45;74.13;103035.59;5002696;28;45727;-58
2022/01/29 04:52:22;;;;;;;;;12.75;10.75;;;;;9.47;73.96;103036.44;5002126;28;45484;-59
2022/01/29 04:54:47;;;;;;;;;14.00;13.00;;;;;9.48;73.95;103030.28;5002046;28;45501;-59
2022/01/29 04:57:13;;;;;;;;;12.75;12.25;;;;;9.50;73.91;103033.75;5001824;28;45428;-58
2022/01/29 04:59:38;;;;;;;;;11.50;9.00;;;;;9.52;74.51;103031.09;5001575;28;45372;-58
2022/01/29 05:02:04;;;;;;;;;11.00;9.75;;;;;9.54;74.18;103038.94;5002302;28;45558;-58
2022/01/29 05:04:29;;;;;;;;;11.50;9.00;;;;;9.54;74.70;103031.94;5002204;28;45359;-58
2022/01/29 05:06:54;;;;;;;;;16.00;9.00;;;;;9.55;74.66;103031.03;5001900;28;45322;-58
2022/01/29 05:09:20;;;;;;;;;8.50;8.50;;;;;9.54;74.92;103042.44;5011101;28;45368;-59
2022/01/29 05:11:49;;;;;;;;;14.25;10.75;;;;;9.54;74.85;103038.94;5016520;28;45258;-58
2022/01/29 05:14:28;;;;;;;;;13.25;8.75;;;;;9.56;74.99;103039.78;5001506;28;45388;-58
2022/01/29 05:27:48;;;;;;;;;13.75;11.00;;;;;9.65;74.92;103042.28;5008627;28;45464;-60
2022/01/29 05:30:14;;;;;;;;;10.50;10.50;;;;;9.65;74.63;103040.50;5001707;28;45644;-59
2022/01/29 05:32:39;;;;;;;;;12.00;11.00;;;;;9.64;74.56;103030.88;5001609;28;45284;-59
2022/01/29 05:35:05;;;;;;;;;11.50;11.00;;;;;9.63;75.19;103029.13;5001719;28;45399;-59
2022/01/29 05:37:30;;;;;;;;;10.75;9.00;;;;;9.63;75.14;103023.00;5001198;28;45716;-59
2022/01/29 05:39:56;;;;;;;;;11.75;10.00;;;;;9.64;74.64;103028.25;5010746;28;45607;-59
2022/01/29 05:42:21;;;;;;;;;12.00;8.00;;;;;9.66;74.55;103025.59;5021457;28;45451;-59
2022/01/29 05:44:47;;;;;;;;;15.25;10.75;;;;;9.68;74.73;103023.78;5021223;28;45732;-59
2022/01/29 05:47:12;;;;;;;;;11.00;9.00;;;;;9.69;74.90;103022.88;5013939;28;45367;-59
2022/01/29 05:49:38;;;;;;;;;13.25;8.00;;;;;9.70;74.72;103020.22;5001244;28;45372;-59
2022/01/29 05:52:03;;;;;;;;;11.00;9.00;;;;;9.75;74.60;103022.78;5001239;28;45588;-59
2022/01/29 05:54:29;;;;;;;;;14.25;9.00;;;;;9.77;74.65;103015.72;5001190;28;45689;-59
2022/01/29 05:56:54;;;;;;;;;10.00;9.50;;;;;9.77;74.55;103018.34;5001324;28;45498;-59
2022/01/29 05:59:20;;;;;;;;;11.50;8.00;;;;;9.79;74.57;103009.53;5000902;28;45448;-59
2022/01/29 06:01:45;;;;;;;;;11.50;9.25;;;;;9.75;74.51;103010.47;5000483;28;45424;-59
2022/01/29 06:04:11;;;;;;;;;6.75;6.75;;;;;9.75;75.02;103014.88;5001251;28;45384;-59
2022/01/29 06:06:36;;;;;;;;;12.75;10.75;;;;;9.76;74.56;103009.56;5001004;28;45304;-59
2022/01/29 06:09:04;;;;;;;;;7.25;7.00;;;;;9.75;74.74;103009.63;5007609;28;45242;-59
2022/01/29 06:11:31;;;;;;;;;14.25;10.00;;;;;9.78;74.97;103017.44;5020818;28;45356;-58
2022/01/29 06:13:57;;;;;;;;;13.50;11.50;;;;;9.82;75.22;103016.50;5016735;28;46216;-59
2022/01/29 06:16:22;;;;;;;;;12.75;9.00;;;;;9.85;74.75;103011.16;4999291;28;45458;-59
2022/01/29 06:18:48;;;;;;;;;11.00;8.00;;;;;9.85;74.83;103011.16;5005614;28;45372;-58
2022/01/29 06:21:14;;;;;;;;;12.00;9.00;;;;;9.89;75.15;103023.38;5006974;28;45459;-58
2022/01/29 06:23:40;;;;;;;;;11.50;8.00;;;;;9.91;74.90;103018.94;5001733;28;46367;-59
2022/01/29 06:26:09;;;;;;;;;12.25;10.75;;;;;9.92;74.44;103019.81;5000629;28;45459;-59
2022/01/29 06:28:35;;;;;;;;;9.25;9.00;;;;;9.87;75.02;103011.97;5000860;28;45286;-59
2022/01/29 06:31:01;;;;;;;;;10.00;8.75;;;;;9.88;75.15;103013.75;5000571;28;45394;-59
2022/01/29 06:33:27;;;;;;;;;10.00;7.00;;;;;9.88;75.11;103019.00;5006851;28;47204;-59
2022/01/29 06:35:53;;;;;;;;;13.00;8.00;;;;;9.90;75.00;103018.97;5020482;28;45403;-59
2022/01/29 06:38:19;;;;;;;;;18.25;8.00;;;;;9.94;74.95;103026.75;5020537;28;45377;-59
2022/01/29 06:40:44;;;;;;;;;7.50;7.50;;;;;9.95;74.43;103022.38;5005588;28;45549;-59
2022/01/29 06:43:11;;;;;;;;;10.75;9.25;;;;;9.93;74.95;103008.38;5001787;28;45475;-59
2022/01/29 06:45:38;;;;;;;;;9.75;8.00;;;;;9.96;74.81;103016.22;5000049;28;45511;-58
2022/01/29 06:48:04;;;;;;;;;7.00;7.00;;;;;9.97;74.74;103013.56;5000998;28;45265;-59
2022/01/29 06:50:30;;;;;;;;;12.00;9.25;;;;;9.97;74.61;103015.31;5000420;28;45330;-58
2022/01/29 06:52:56;;;;;;;;;6.75;6.75;;;;;9.97;75.17;103002.16;5000074;28;45412;-59
2022/01/29 06:55:21;;;;;;;;;11.50;8.00;;;;;9.96;75.19;103001.28;4999324;28;45465;-59
2022/01/29 06:57:47;;;;;;;;;8.00;7.50;;;;;10.00;74.74;102997.69;5000710;28;45340;-59
2022/01/29 07:00:13;;;;;;;;;7.75;7.75;;;;;10.01;74.75;103004.69;5000180;28;45296;-59
2022/01/29 07:02:39;;;;;;;;;6.50;6.50;;;;;10.03;75.08;103017.81;5000330;28;45455;-58
2022/01/29 07:05:06;;;;;;;;;9.25;7.75;;;;;10.04;75.25;103009.03;5000681;28;45747;-59
2022/01/29 07:07:32;;;;;;;;;9.00;7.00;;;;;10.06;74.75;103017.75;5003865;28;45628;-59
2022/01/29 07:09:58;;;;;;;;;14.50;8.00;;;;;10.07;74.98;103009.81;5017928;28;45693;-59
2022/01/29 07:12:25;;;;;;;;;7.75;7.00;;;;;10.07;75.00;103004.56;5020718;28;45416;-59
2022/01/29 07:14:51;;;;;;;;;6.75;6.75;;;;;10.06;74.61;103012.50;5009355;28;45228;-59
2022/01/29 07:17:18;;;;;;;;;14.75;9.25;;;;;10.06;74.88;103002.84;5021507;28;45313;-58
2022/01/29 07:19:44;;;;;;;;;12.25;6.50;;;;;10.07;75.18;103007.19;5022372;28;45446;-59
2022/01/29 07:22:10;;;;;;;;;10.50;8.00;;;;;10.11;75.03;103004.50;5003955;28;45408;-59
2022/01/29 07:24:36;;;;;;;;;8.00;6.75;;;;;10.13;74.71;102997.44;5003430;28;45374;-58
2022/01/29 07:27:03;;;;;;;;;7.50;6.25;;;;;10.15;74.98;103000.91;5003872;28;45279;-59
2022/01/29 07:29:29;;;;;;;;;8.00;5.00;;;;;10.18;74.64;103001.69;5002999;28;45602;-58
2022/01/29 07:31:58;;;;;;;;;6.25;6.00;;;;;10.21;74.63;102998.16;5012291;28;45391;-59
2022/01/29 07:34:25;;;;;;;;;7.00;6.00;;;;;10.20;74.60;102997.28;5023250;28;45408;-58
2022/01/29 07:36:55;;;;;;;;;6.75;6.00;;;;;10.20;74.27;102996.41;5023775;28;45486;-58
2022/01/29 07:39:21;;;;;;;;;4.00;3.50;;;;;10.21;74.74;103000.78;5019902;28;45504;-56
2022/01/29 07:41:48;;;;;;;;;3.75;3.75;;;;;10.22;74.93;102995.50;5002998;28;45374;-56
2022/01/29 07:44:14;;;;;;;;;3.75;3.25;;;;;10.23;74.27;103009.53;5005760;28;45472;-56
2022/01/29 07:46:40;;;;;;;;;3.00;3.00;;;;;10.25;74.49;103013.00;5010334;28;45694;-56
2022/01/29 07:49:06;;;;;;;;;7.50;4.00;;;;;10.26;74.67;103007.69;5006128;28;45291;-55
2022/01/29 07:51:31;;;;;;;;;5.00;5.00;;;;;10.30;74.58;103008.50;5011553;28;45910;-54
2022/01/29 07:53:57;;;;;;;;;3.50;2.00;;;;;10.30;74.54;102996.22;5012944;28;45788;-57
2022/01/29 07:56:23;;;;;;;;;9.00;6.00;;;;;10.28;74.86;103011.19;5014203;28;45252;-55
2022/01/29 07:58:49;;;;;;;;;6.75;6.00;;;;;10.28;75.16;103005.91;5011990;28;45410;-56
2022/01/29 08:01:15;;;;;;;;;11.50;6.50;;;;;10.28;75.28;103008.56;5010383;28;45571;-56
2022/01/29 08:03:41;;;;;;;;;4.50;4.50;;;;;10.28;75.01;103003.28;5009009;28;45904;-56
2022/01/29 08:06:07;;;;;;;;;5.50;4.00;;;;;10.34;75.01;103007.53;5010560;28;45429;-56
2022/01/29 08:08:33;;;;;;;;;2.50;2.00;;;;;10.36;74.79;103000.47;5011689;28;45467;-57
2022/01/29 08:10:59;;;;;;;;;6.00;3.50;;;;;10.39;74.60;102997.75;5013385;28;46111;-57
2022/01/29 08:13:24;;;;;;;;;2.00;2.00;;;;;10.40;74.86;102991.59;5008827;28;45253;-57
2022/01/29 08:15:49;;;;;;;;;3.50;3.00;;;;;10.42;74.98;102988.91;5008191;28;45448;-56
2022/01/29 08:18:15;;;;;;;;;5.00;3.75;;;;;10.44;75.16;102989.78;5009903;28;45477;-58
2022/01/29 08:20:41;;;;;;;;;2.25;1.00;;;;;10.48;74.67;102997.56;5008733;28;46320;-56
2022/01/29 08:23:08;;;;;;;;;3.00;3.00;;;;;10.50;74.94;102995.75;5008491;28;45386;-57
2022/01/29 08:25:34;;;;;;;;;3.75;3.75;;;;;10.51;74.94;102989.59;5011847;28;45551;-58
2022/01/29 08:28:00;;;;;;;;;4.00;4.00;;;;;10.50;75.07;102987.84;5010222;28;45468;-58
2022/01/29 08:30:26;;;;;;;;;2.25;2.25;;;;;10.51;74.87;102994.00;5010782;28;45459;-58
2022/01/29 08:32:51;;;;;;;;;6.25;4.50;;;;;10.52;75.01;102993.97;5006797;28;45719;-57
2022/01/29 08:35:17;;;;;;;;;3.00;3.00;;;;;10.55;74.54;102999.16;5011368;28;45352;-58
2022/01/29 08:37:44;;;;;;;;;3.00;2.25;;;;;10.59;74.95;103000.81;5011031;28;45419;-59
2022/01/29 08:40:12;;;;;;;;;4.00;3.00;;;;;10.59;75.11;103005.22;5014392;28;46834;-59
2022/01/29 08:42:38;;;;;;;;;3.75;3.75;;;;;10.56;74.74;102992.09;5013935;28;45648;-59
2022/01/29 08:45:07;;;;;;;;;3.25;3.00;;;;;10.56;74.95;102986.84;5010977;28;45393;-57
2022/01/29 08:47:33;;;;;;;;;4.00;3.50;;;;;10.58;75.18;102991.16;5011580;28;45268;-59
2022/01/29 08:50:00;;;;;;;;;4.25;2.25;;;;;10.63;75.13;102986.66;5009793;28;45449;-59
2022/01/29 08:52:27;;;;;;;;;3.75;3.00;;;;;10.65;75.39;102988.38;5013153;28;45349;-59
2022/01/29 08:54:53;;;;;;;;;4.00;3.00;;;;;10.65;75.04;102997.16;5008487;28;45432;-64
2022/01/29 08:57:18;;;;;;;;;3.75;3.00;;;;;10.69;74.87;102993.56;5009857;28;45407;-60
2022/01/29 08:59:43;;;;;;;;;4.00;3.00;;;;;10.74;74.75;102993.44;5011760;28;46172;-57
2022/01/29 09:02:09;;;;;;;;;3.00;3.00;;;;;10.76;74.92;102989.03;5005921;28;45419;-57
2022/01/29 09:04:34;;;;;;;;;3.25;2.75;;;;;10.79;75.06;102987.16;5005941;28;45462;-58
2022/01/29 09:07:00;;;;;;;;;3.00;2.25;;;;;10.79;74.42;102988.94;5012109;28;45483;-57
2022/01/29 09:09:26;;;;;;;;;3.25;2.75;;;;;10.79;74.69;102987.16;5006819;28;45505;-62
2022/01/29 09:11:53;;;;;;;;;6.00;2.75;;;;;10.80;74.92;102993.28;5015325;28;45443;-58
2022/01/29 09:14:19;;;;;;;;;2.50;2.50;;;;;10.81;74.57;102984.47;5002769;28;45410;-57
2022/01/29 09:16:45;;;;;;;;;2.75;2.00;;;;;10.81;74.65;102995.88;5003721;28;45595;-58
2022/01/29 09:19:11;;;;;;;;;3.00;2.50;;;;;10.81;74.66;102987.97;5012654;28;45729;-58
2022/01/29 09:21:36;;;;;;;;;3.00;3.00;;;;;10.84;74.57;102989.69;5016524;28;45403;-57
2022/01/29 09:24:02;;;;;;;;;3.50;3.50;;;;;10.88;74.99;102989.56;5010808;28;45281;-59
2022/01/29 09:26:28;;;;;;;;;3.00;3.00;;;;;10.92;74.35;102984.25;5008131;28;45671;-59
2022/01/29 09:28:53;;;;;;;;;4.00;4.00;;;;;10.96;74.46;102976.19;5015831;28;45285;-58
2022/01/29 09:31:19;;;;;;;;;4.00;3.00;;;;;11.04;74.16;102974.22;5015927;28;45434;-58
2022/01/29 09:33:44;;;;;;;;;3.25;2.75;;;;;11.07;74.10;102974.16;5016653;28;45243;-58
2022/01/29 09:36:10;;;;;;;;;3.00;2.50;;;;;11.09;74.36;102972.34;5012739;28;45450;-59
2022/01/29 09:38:35;;;;;;;;;5.25;3.00;;;;;11.12;74.23;102966.97;5006706;28;46412;-60
2022/01/29 09:41:03;;;;;;;;;3.00;3.00;;;;;11.13;73.90;102973.13;5019088;28;45447;-59
2022/01/29 09:43:31;;;;;;;;;2.25;2.25;;;;;11.13;73.83;102967.84;5001614;28;45408;-61
2022/01/29 09:46:00;;;;;;;;;3.00;2.00;;;;;11.14;73.97;102974.88;5004272;28;45512;-58
2022/01/29 09:48:30;;;;;;;;;3.50;1.50;;;;;11.15;74.00;102976.63;5006703;28;45483;-58
2022/01/29 09:50:58;;;;;;;;;4.00;2.00;;;;;11.17;74.01;102964.25;5009967;28;45425;-57
2022/01/29 09:53:23;;;;;;;;;3.00;3.00;;;;;11.18;74.04;102966.84;5011733;28;45348;-59
2022/01/29 09:55:50;;;;;;;;;7.25;2.00;;;;;11.22;73.82;102977.28;5024149;28;45440;-60
2022/01/29 09:58:15;;;;;;;;;3.25;2.50;;;;;11.19;73.86;102972.97;5014791;28;45300;-59
2022/01/29 10:00:41;;;;;;;;;2.00;2.00;;;;;11.17;73.58;102977.44;5014052;28;45355;-60
2022/01/29 10:03:10;;;;;;;;;1.25;1.25;;;;;11.14;73.69;102978.38;5014848;28;45591;-59
2022/01/29 10:05:38;;;;;;;;;4.00;2.75;;;;;11.12;74.16;102977.53;5007755;28;45440;-58
2022/01/29 10:08:05;;;;;;;;;4.00;2.00;;;;;11.17;74.21;102977.44;5009782;28;45387;-59
2022/01/29 10:10:38;;;;;;;;;3.50;3.00;;;;;11.15;74.28;102987.16;5012664;28;45396;-58
2022/01/29 10:13:28;;;;;;;;;3.50;2.75;;;;;11.17;73.99;102986.22;5013367;28;45281;-60
2022/01/29 10:16:21;;;;;;;;;3.75;2.50;;;;;11.20;74.26;102985.25;5011002;28;45532;-58
2022/01/29 10:19:07;;;;;;;;;3.25;3.00;;;;;11.22;74.53;102985.19;5009223;28;45987;-59
2022/01/29 10:21:35;;;;;;;;;6.00;2.25;;;;;11.26;74.16;102993.00;5015044;28;45518;-60
2022/01/29 10:24:06;;;;;;;;;2.00;2.00;;;;;11.34;74.17;102993.69;5014268;28;45640;-58
2022/01/29 10:26:42;;;;;;;;;1.25;1.25;;;;;11.36;74.01;102991.00;5019597;28;45515;-60
2022/01/29 10:29:17;;;;;;;;;2.00;2.00;;;;;11.40;74.41;102985.59;5019522;28;45517;-60
2022/01/29 10:31:48;;;;;;;;;3.00;2.00;;;;;11.50;73.76;102983.56;5014422;28;45724;-59
2022/01/29 10:34:28;;;;;;;;;2.50;2.00;;;;;11.55;73.69;102992.25;5012439;28;45371;-62
2022/01/29 10:37:16;;;;;;;;;3.00;1.00;;;;;11.60;73.39;102982.41;5016590;28;45492;-58
2022/01/29 10:39:57;;;;;;;;;3.75;3.00;;;;;11.70;74.28;102980.41;5016573;28;45229;-59
2022/01/29 10:42:26;;;;;;;;;3.00;3.00;;;;;11.88;75.99;102977.25;5013524;28;45338;-60
2022/01/29 10:44:59;;;;;;;;;4.25;3.00;;;;;12.12;74.05;102977.44;5008000;28;45487;-60
2022/01/29 10:47:26;;;;;;;;;3.25;2.00;;;;;12.23;74.96;102977.97;5011091;28;45534;-61
2022/01/29 10:49:54;;;;;;;;;3.00;2.00;;;;;12.45;73.94;102975.56;5008890;28;45408;-59
2022/01/29 10:52:34;;;;;;;;;2.00;2.00;;;;;12.56;73.05;102978.75;5009504;28;45475;-59
2022/01/29 10:55:05;;;;;;;;;2.25;2.25;;;;;12.60;73.41;102982.13;5008352;28;45316;-61
2022/01/29 10:57:34;;;;;;;;;1.50;1.50;;;;;12.71;73.03;102985.28;5008691;28;45606;-66
2022/01/29 11:00:01;;;;;;;;;2.00;2.00;;;;;12.92;72.08;102970.50;5004024;28;45460;-62
2022/01/29 11:02:30;;;;;;;;;3.50;2.25;;;;;13.02;72.27;102982.50;5009075;28;45416;-64
2022/01/29 11:04:56;;;;;;;;;3.50;1.50;;;;;13.08;71.98;102982.28;5005183;28;45257;-60
2022/01/29 11:07:27;;;;;;;;;3.00;2.00;;;;;13.15;71.08;102978.53;5007584;28;45246;-61
2022/01/29 11:09:53;;;;;;;;;1.00;1.00;;;;;13.15;70.95;102975.88;5009043;28;46404;-60
2022/01/29 11:12:21;;;;;;;;;2.00;1.75;;;;;13.12;71.00;102981.28;5011033;28;45429;-56
2022/01/29 11:14:49;;;;;;;;;2.00;2.00;;;;;13.09;70.30;102976.94;5014511;28;45537;-58
2022/01/29 11:17:18;;;;;;;;;2.00;2.00;;;;;12.95;70.32;102981.84;5012879;28;45511;-56
2022/01/29 11:19:44;;;;;;;;;0.00;0.00;;;;;12.76;70.37;102983.38;5006974;28;46107;-59
2022/01/29 11:22:11;;;;;;;;;1.25;1.00;;;;;12.63;70.57;102984.66;5008148;28;45400;-59
2022/01/29 11:24:38;;;;;;;;;1.75;1.75;;;;;12.52;70.95;102985.03;5008613;28;45506;-59
2022/01/29 11:27:22;;;;;;;;;0.25;0.25;;;;;12.41;71.03;102988.00;5009632;28;45484;-59
2022/01/29 11:29:57;;;;;;;;;2.25;2.00;;;;;12.36;71.35;102986.41;5006136;28;46382;-57
2022/01/29 11:32:25;;;;;;;;;1.00;1.00;;;;;12.28;71.61;102984.00;5017552;28;45421;-57
2022/01/29 11:35:15;;;;;;;;;1.50;1.00;;;;;12.18;71.78;102980.78;5006420;28;45358;-59